createdAt,value
2023-05-23T00:01:21.405Z,11.15
2023-05-23T00:03:49.456Z,10.89
2023-05-23T00:06:21.277Z,11.62
2023-05-23T00:08:48.310Z,11.14
2023-05-23T00:11:15.324Z,10.29
2023-05-23T00:13:42.272Z,11.68
2023-05-23T00:16:09.770Z,11.47
2023-05-23T00:18:38.441Z,11.38
2023-05-23T00:21:05.182Z,10.72
2023-05-23T00:23:34.013Z,11.47
2023-05-23T00:26:00.741Z,11.01
2023-05-23T00:28:28.092Z,11.04
2023-05-23T00:30:54.824Z,10.63
2023-05-23T00:33:22.202Z,11.55
2023-05-23T00:35:49.326Z,11.15
2023-05-23T00:38:16.868Z,11.19
2023-05-23T00:40:43.526Z,10.88
2023-05-23T00:43:10.240Z,10.90
2023-05-23T00:45:36.898Z,10.06
2023-05-23T00:48:03.680Z,10.37
2023-05-23T00:50:30.525Z,10.88
2023-05-23T00:52:57.917Z,10.65
2023-05-23T00:55:25.130Z,10.88
2023-05-23T00:57:55.715Z,10.66
2023-05-23T01:00:23.178Z,11.14
2023-05-23T01:02:53.564Z,10.41
2023-05-23T01:05:22.738Z,10.81
2023-05-23T01:07:50.133Z,10.44
2023-05-23T01:10:17.866Z,9.67
2023-05-23T01:12:57.358Z,10.85
2023-05-23T01:15:29.682Z,10.76
2023-05-23T01:18:02.794Z,10.44
2023-05-23T01:20:31.716Z,11.21
2023-05-23T01:23:01.159Z,11.45
2023-05-23T01:25:58.293Z,11.42
2023-05-23T01:28:32.743Z,10.93
2023-05-23T01:30:59.441Z,11.17
2023-05-23T01:33:26.427Z,10.81
2023-05-23T01:35:53.081Z,10.33
2023-05-23T01:38:19.761Z,11.15
2023-05-23T01:40:46.463Z,11.15
2023-05-23T01:43:13.078Z,11.13
2023-05-23T01:45:39.989Z,11.00
2023-05-23T01:48:06.855Z,11.13
2023-05-23T01:50:33.566Z,10.78
2023-05-23T01:53:00.549Z,9.33
2023-05-23T01:55:27.262Z,11.12
2023-05-23T01:57:55.571Z,11.27
2023-05-23T02:00:22.403Z,10.33
2023-05-23T02:02:49.146Z,10.97
2023-05-23T02:05:15.864Z,10.33
2023-05-23T02:07:42.626Z,10.99
2023-05-23T02:10:09.714Z,11.36
2023-05-23T02:12:36.566Z,11.11
2023-05-23T02:15:03.455Z,10.97
2023-05-23T02:17:30.802Z,11.15
2023-05-23T02:19:57.591Z,11.17
2023-05-23T02:22:27.116Z,10.91
2023-05-23T02:24:53.766Z,10.98
2023-05-23T02:27:20.453Z,10.35
2023-05-23T02:29:47.156Z,11.17
2023-05-23T02:32:13.837Z,9.74
2023-05-23T02:34:40.703Z,11.28
2023-05-23T02:37:07.577Z,10.10
2023-05-23T02:39:36.314Z,10.62
2023-05-23T02:42:03.222Z,10.56
2023-05-23T02:44:29.937Z,11.21
2023-05-23T02:46:56.580Z,10.71
2023-05-23T02:49:23.276Z,10.59
2023-05-23T02:51:50.110Z,10.57
2023-05-23T02:54:16.978Z,10.44
2023-05-23T02:56:45.431Z,9.35
2023-05-23T02:59:12.478Z,10.89
2023-05-23T03:01:39.149Z,10.52
2023-05-23T03:04:05.985Z,10.63
2023-05-23T03:06:34.184Z,10.73
2023-05-23T03:09:01.540Z,10.55
2023-05-23T03:11:29.960Z,10.74
2023-05-23T03:13:56.920Z,10.57
2023-05-23T03:16:24.525Z,10.70
2023-05-23T03:18:51.361Z,11.10
2023-05-23T03:21:18.155Z,10.90
2023-05-23T03:23:44.816Z,11.02
2023-05-23T03:26:11.893Z,11.33
2023-05-23T03:28:38.619Z,11.43
2023-05-23T03:31:05.548Z,11.46
2023-05-23T03:33:32.273Z,10.79
2023-05-23T03:35:59.013Z,11.32
2023-05-23T03:38:26.334Z,11.75
2023-05-23T03:40:53.053Z,10.13
2023-05-23T03:43:19.741Z,10.62
2023-05-23T03:45:46.521Z,11.91
2023-05-23T03:48:13.241Z,11.96
2023-05-23T03:50:39.947Z,12.30
2023-05-23T03:53:07.300Z,12.54
2023-05-23T03:55:34.428Z,11.78
2023-05-23T03:58:01.139Z,12.30
2023-05-23T04:00:27.989Z,12.53
2023-05-23T04:02:55.069Z,12.46
2023-05-23T04:05:21.907Z,11.41
2023-05-23T04:07:49.293Z,12.88
2023-05-23T04:10:16.468Z,12.78
2023-05-23T04:12:43.738Z,12.84
2023-05-23T04:15:11.452Z,12.73
2023-05-23T04:17:39.001Z,13.11
2023-05-23T04:20:10.279Z,12.76
2023-05-23T04:22:37.238Z,13.05
2023-05-23T04:25:04.326Z,13.53
2023-05-23T04:27:31.069Z,13.71
2023-05-23T04:29:58.822Z,13.62
2023-05-23T04:32:26.273Z,13.14
2023-05-23T04:34:53.010Z,12.84
2023-05-23T04:37:26.191Z,13.95
2023-05-23T04:39:53.433Z,14.35
2023-05-23T04:42:24.530Z,14.85
2023-05-23T04:44:52.862Z,14.79
2023-05-23T04:47:19.710Z,15.50
2023-05-23T04:49:46.343Z,16.78
2023-05-23T04:52:13.491Z,18.07
2023-05-23T04:54:45.110Z,19.69
2023-05-23T04:57:12.510Z,20.96
2023-05-23T04:59:39.517Z,22.50
2023-05-23T05:02:06.596Z,23.89
2023-05-23T05:04:33.276Z,25.12
2023-05-23T05:07:00.031Z,26.10
2023-05-23T05:09:26.710Z,27.05
2023-05-23T05:11:53.355Z,28.25
2023-05-23T05:14:20.082Z,29.24
2023-05-23T05:16:48.039Z,29.97
2023-05-23T05:19:14.961Z,30.82
2023-05-23T05:21:41.779Z,31.72
2023-05-23T05:24:11.232Z,31.94
2023-05-23T05:26:37.940Z,32.43
2023-05-23T05:29:04.700Z,32.99
2023-05-23T05:31:31.447Z,32.11
2023-05-23T05:33:58.544Z,33.46
2023-05-23T05:36:25.229Z,34.36
2023-05-23T05:38:53.238Z,34.22
2023-05-23T05:41:24.378Z,35.16
2023-05-23T05:43:51.167Z,35.66
2023-05-23T05:46:17.836Z,36.19
2023-05-23T05:48:45.963Z,36.69
2023-05-23T05:51:12.650Z,37.16
2023-05-23T05:53:39.307Z,37.46
2023-05-23T05:56:06.197Z,37.69
2023-05-23T05:58:32.958Z,37.99
2023-05-23T06:00:59.937Z,38.11
2023-05-23T06:03:27.496Z,38.86
2023-05-23T06:05:54.391Z,38.99
2023-05-23T06:08:21.050Z,39.23
2023-05-23T06:10:47.813Z,39.00
2023-05-23T06:13:14.883Z,39.77
2023-05-23T06:15:41.560Z,40.23
2023-05-23T06:18:08.251Z,40.60
2023-05-23T06:20:34.900Z,40.79
2023-05-23T06:23:01.925Z,41.36
2023-05-23T06:25:28.657Z,41.43
2023-05-23T06:27:55.545Z,41.09
2023-05-23T06:30:23.276Z,42.14
2023-05-23T06:32:50.015Z,42.01
2023-05-23T06:35:17.852Z,42.11
2023-05-23T06:37:46.007Z,43.03
2023-05-23T06:40:14.671Z,43.23
2023-05-23T06:42:41.766Z,42.20
2023-05-23T06:45:09.360Z,43.69
2023-05-23T06:47:36.090Z,43.67
2023-05-23T06:50:03.267Z,43.90
2023-05-23T06:52:29.911Z,43.87
2023-05-23T06:54:56.676Z,44.42
2023-05-23T06:57:23.376Z,44.26
2023-05-23T06:59:50.056Z,44.26
2023-05-23T07:02:16.836Z,44.30
2023-05-23T07:04:43.616Z,43.61
2023-05-23T07:07:10.255Z,42.63
2023-05-23T07:09:38.472Z,41.30
2023-05-23T07:12:06.164Z,39.88
2023-05-23T07:14:35.691Z,38.61
2023-05-23T07:17:02.537Z,37.47
2023-05-23T07:19:29.416Z,36.22
2023-05-23T07:21:56.242Z,35.67
2023-05-23T07:24:25.083Z,35.04
2023-05-23T07:26:52.306Z,34.11
2023-05-23T07:29:19.144Z,31.37
2023-05-23T07:31:46.025Z,32.53
2023-05-23T07:34:12.762Z,31.06
2023-05-23T07:36:40.948Z,30.41
2023-05-23T07:39:08.247Z,30.47
2023-05-23T07:41:34.939Z,29.35
2023-05-23T07:44:01.642Z,29.73
2023-05-23T07:46:28.404Z,29.65
2023-05-23T07:48:55.508Z,28.70
2023-05-23T07:51:22.389Z,28.99
2023-05-23T07:53:49.015Z,28.64
2023-05-23T07:56:16.024Z,28.75
2023-05-23T07:58:46.038Z,28.69
2023-05-23T08:01:12.838Z,28.38
2023-05-23T08:03:39.776Z,28.28
2023-05-23T08:06:07.676Z,28.58
2023-05-23T08:08:34.365Z,28.31
2023-05-23T08:11:01.078Z,28.48
2023-05-23T08:13:28.612Z,28.66
2023-05-23T08:15:57.441Z,28.83
2023-05-23T08:18:24.242Z,28.67
2023-05-23T08:20:51.005Z,28.66
2023-05-23T08:23:18.077Z,28.41
2023-05-23T08:25:44.953Z,27.92
2023-05-23T08:28:11.651Z,28.87
2023-05-23T08:30:38.332Z,28.62
2023-05-23T08:33:05.239Z,28.83
2023-05-23T08:35:36.700Z,28.91
2023-05-23T08:38:06.166Z,28.80
2023-05-23T08:40:33.348Z,28.58
2023-05-23T08:43:00.144Z,28.50
2023-05-23T08:45:27.127Z,28.69
2023-05-23T08:47:53.854Z,28.27
2023-05-23T08:50:23.050Z,27.42
2023-05-23T08:52:57.867Z,27.46
2023-05-23T08:55:27.323Z,26.89
2023-05-23T08:57:54.764Z,27.11
2023-05-23T09:00:22.568Z,27.09
2023-05-23T09:02:49.609Z,25.48
2023-05-23T09:05:17.030Z,26.57
2023-05-23T09:07:47.566Z,25.24
2023-05-23T09:10:14.645Z,27.13
2023-05-23T09:12:41.285Z,26.98
2023-05-23T09:15:09.601Z,25.39
2023-05-23T09:17:36.463Z,26.24
2023-05-23T09:20:23.674Z,26.84
2023-05-23T09:22:50.630Z,26.76
2023-05-23T09:25:17.528Z,27.00
2023-05-23T09:27:47.586Z,26.44
2023-05-23T09:30:15.233Z,26.66
2023-05-23T09:32:42.541Z,26.56
2023-05-23T09:35:14.340Z,25.15
2023-05-23T09:37:45.925Z,25.83
2023-05-23T09:40:14.315Z,25.85
2023-05-23T09:42:46.721Z,26.15
2023-05-23T09:45:14.049Z,25.51
2023-05-23T09:47:52.942Z,26.31
2023-05-23T09:50:20.449Z,26.23
2023-05-23T09:52:51.213Z,24.26
2023-05-23T09:55:18.699Z,25.86
2023-05-23T09:57:45.920Z,26.27
2023-05-23T10:00:13.898Z,25.52
2023-05-23T10:02:59.530Z,26.37
2023-05-23T10:05:41.176Z,26.40
2023-05-23T10:08:39.049Z,25.66
2023-05-23T10:11:14.767Z,26.31
2023-05-23T10:13:42.118Z,26.06
2023-05-23T10:16:27.756Z,25.84
2023-05-23T10:18:58.071Z,25.44
2023-05-23T10:21:28.460Z,26.22
2023-05-23T10:23:55.100Z,26.01
2023-05-23T10:26:22.281Z,25.35
2023-05-23T10:28:48.988Z,25.50
2023-05-23T10:31:15.819Z,26.34
2023-05-23T10:33:44.038Z,25.96
2023-05-23T10:36:19.439Z,26.13
2023-05-23T10:39:00.700Z,25.98
2023-05-23T10:41:56.201Z,26.65
2023-05-23T10:44:30.241Z,26.17
2023-05-23T10:47:04.377Z,26.05
2023-05-23T10:49:37.720Z,26.32
2023-05-23T10:52:04.575Z,25.85
2023-05-23T10:54:48.143Z,25.55
2023-05-23T10:57:22.033Z,25.85
2023-05-23T10:59:52.150Z,26.15
2023-05-23T11:02:25.700Z,26.09
2023-05-23T11:05:23.206Z,26.76
2023-05-23T11:08:11.723Z,26.65
2023-05-23T11:10:59.563Z,26.64
2023-05-23T11:13:26.516Z,25.52
2023-05-23T11:15:53.388Z,26.01
2023-05-23T11:18:39.092Z,25.76
2023-05-23T11:21:05.742Z,26.19
2023-05-23T11:23:44.390Z,26.17
2023-05-23T11:26:30.265Z,26.47
2023-05-23T11:28:57.776Z,26.27
2023-05-23T11:31:24.660Z,25.45
2023-05-23T11:33:51.861Z,26.41
2023-05-23T11:36:18.794Z,25.97
2023-05-23T11:38:45.722Z,26.60
2023-05-23T11:41:12.585Z,26.50
2023-05-23T11:43:49.720Z,26.76
2023-05-23T11:46:16.449Z,26.48
2023-05-23T11:48:46.769Z,26.54
2023-05-23T11:51:13.464Z,26.18
2023-05-23T11:53:40.328Z,25.81
2023-05-23T11:56:07.137Z,25.98
2023-05-23T11:58:37.609Z,25.00
2023-05-23T12:01:08.405Z,25.41
2023-05-23T12:03:35.794Z,25.18
2023-05-23T12:06:02.812Z,24.07
2023-05-23T12:08:29.522Z,24.74
2023-05-23T12:11:00.524Z,24.40
2023-05-23T12:13:28.975Z,24.27
2023-05-23T12:16:06.505Z,23.46
2023-05-23T12:18:38.874Z,22.43
2023-05-23T12:21:08.921Z,21.61
2023-05-23T12:23:36.088Z,20.94
2023-05-23T12:26:08.313Z,20.39
2023-05-23T12:28:47.931Z,19.75
2023-05-23T12:31:19.651Z,18.35
2023-05-23T12:33:48.333Z,17.95
2023-05-23T12:36:41.882Z,16.85
2023-05-23T12:39:15.132Z,16.12
2023-05-23T12:41:42.202Z,15.20
2023-05-23T12:44:08.845Z,15.52
2023-05-23T12:46:35.803Z,14.95
2023-05-23T12:49:02.582Z,15.10
2023-05-23T12:51:29.728Z,14.80
2023-05-23T12:53:58.028Z,14.74
2023-05-23T12:56:25.461Z,14.65
2023-05-23T12:58:53.870Z,13.73
2023-05-23T13:01:20.596Z,13.72
2023-05-23T13:03:47.407Z,15.28
2023-05-23T13:06:14.329Z,15.54
2023-05-23T13:08:41.797Z,16.08
2023-05-23T13:11:08.995Z,15.65
2023-05-23T14:59:58.691Z,20.14
2023-05-23T15:02:25.361Z,20.01
2023-05-23T15:04:52.430Z,20.09
2023-05-23T15:07:19.193Z,20.13
2023-05-23T15:09:47.360Z,20.07
2023-05-23T15:12:15.338Z,20.20
2023-05-23T15:14:43.544Z,19.38
2023-05-23T15:17:12.707Z,20.72
2023-05-23T15:19:42.816Z,20.68
2023-05-23T15:22:18.432Z,20.87
2023-05-23T15:24:58.632Z,20.55
2023-05-23T15:27:25.406Z,20.69
2023-05-23T15:29:52.068Z,20.85
2023-05-23T15:32:18.743Z,20.51
2023-05-23T15:34:45.503Z,20.66
2023-05-23T15:37:12.258Z,19.27
2023-05-23T15:39:38.917Z,20.51
2023-05-23T15:42:06.016Z,20.72
2023-05-23T15:44:32.728Z,20.62
2023-05-23T15:46:59.411Z,20.63
2023-05-23T15:49:27.182Z,19.17
2023-05-23T15:51:55.305Z,20.41
2023-05-23T15:54:22.486Z,20.64
2023-05-23T15:56:49.238Z,20.42
2023-05-23T15:59:15.917Z,20.07
2023-05-23T16:01:42.780Z,20.22
2023-05-23T16:04:09.915Z,19.55
2023-05-23T16:06:36.853Z,19.51
2023-05-23T16:09:03.729Z,19.25
2023-05-23T16:11:30.503Z,19.68
2023-05-23T16:13:57.160Z,19.69
2023-05-23T16:16:23.958Z,18.83
2023-05-23T16:18:50.812Z,19.14
2023-05-23T16:21:20.658Z,19.45
2023-05-23T16:23:50.728Z,19.47
2023-05-23T16:26:19.608Z,18.96
2023-05-23T16:28:46.521Z,18.00
2023-05-23T16:31:14.211Z,18.43
2023-05-23T16:33:41.050Z,18.85
2023-05-23T16:36:07.920Z,19.04
2023-05-23T16:38:34.780Z,19.04
2023-05-23T16:41:01.485Z,18.88
2023-05-23T16:43:28.170Z,17.35
2023-05-23T16:45:54.915Z,18.27
2023-05-23T16:48:22.269Z,18.34
2023-05-23T16:50:48.926Z,18.60
2023-05-23T16:53:15.759Z,18.51
2023-05-23T16:55:42.718Z,16.00
2023-05-23T16:58:09.542Z,18.35
2023-05-23T17:00:36.255Z,18.49
2023-05-23T17:03:03.087Z,17.76
2023-05-23T17:05:29.823Z,18.18
2023-05-23T17:07:56.575Z,18.41
2023-05-23T17:10:23.412Z,18.18
2023-05-23T17:12:50.126Z,17.90
2023-05-23T17:15:16.857Z,17.32
2023-05-23T17:17:43.611Z,17.20
2023-05-23T17:20:10.476Z,17.45
2023-05-23T17:22:38.042Z,17.35
2023-05-23T17:25:06.501Z,16.64
2023-05-23T17:27:33.317Z,17.66
2023-05-23T17:30:00.074Z,17.64
2023-05-23T17:32:27.229Z,16.67
2023-05-23T17:34:53.879Z,17.68
2023-05-23T17:37:20.683Z,17.55
2023-05-23T17:39:48.729Z,17.50
2023-05-23T17:42:16.026Z,17.26
2023-05-23T17:44:43.172Z,17.73
2023-05-23T17:47:09.891Z,17.20
2023-05-23T17:49:38.837Z,17.45
2023-05-23T17:52:06.975Z,17.07
2023-05-23T17:54:33.625Z,17.37
2023-05-23T17:57:00.323Z,17.11
2023-05-23T17:59:28.148Z,16.99
2023-05-23T18:01:54.985Z,16.73
2023-05-23T18:04:22.318Z,16.92
2023-05-23T18:06:49.002Z,17.23
2023-05-23T18:09:16.775Z,17.07
2023-05-23T18:11:43.504Z,16.88
2023-05-23T18:14:10.299Z,17.06
2023-05-23T18:16:37.364Z,17.12
2023-05-23T18:19:04.898Z,17.38
2023-05-23T18:21:32.435Z,16.68
2023-05-23T18:23:59.086Z,16.87
2023-05-23T18:26:25.807Z,17.19
2023-05-23T18:28:52.614Z,16.40
2023-05-23T18:31:19.272Z,17.09
2023-05-23T18:33:46.121Z,15.91
2023-05-23T18:36:12.821Z,17.21
2023-05-23T18:38:40.983Z,17.23
2023-05-23T18:41:07.950Z,17.19
2023-05-23T18:43:34.579Z,17.25
2023-05-23T18:46:01.241Z,17.16
2023-05-23T18:48:27.929Z,16.23
2023-05-23T18:50:54.721Z,16.70
2023-05-23T18:53:21.369Z,16.92
2023-05-23T18:55:48.066Z,16.08
2023-05-23T18:58:14.929Z,16.94
2023-05-23T19:00:44.453Z,16.35
2023-05-23T19:03:11.300Z,16.46
2023-05-23T19:05:38.145Z,15.92
2023-05-23T19:08:05.027Z,16.95
2023-05-23T19:10:31.678Z,15.60
2023-05-23T19:12:58.364Z,16.74
2023-05-23T19:15:25.192Z,16.51
2023-05-23T19:17:51.898Z,16.55
2023-05-23T19:20:20.136Z,16.54
2023-05-23T19:22:51.937Z,16.72
2023-05-23T19:25:20.433Z,16.86
2023-05-23T19:27:47.101Z,16.91
2023-05-23T19:30:13.840Z,16.77
2023-05-23T19:32:40.607Z,16.12
2023-05-23T19:35:08.383Z,16.42
2023-05-23T19:37:35.182Z,16.16
2023-05-23T19:40:02.017Z,16.11
2023-05-23T19:42:28.762Z,15.70
2023-05-23T19:44:55.578Z,16.65
2023-05-23T19:47:22.355Z,16.15
2023-05-23T19:49:49.166Z,16.14
2023-05-23T19:52:15.943Z,15.92
2023-05-23T19:54:42.695Z,16.27
2023-05-23T19:57:09.406Z,15.97
2023-05-23T19:59:36.141Z,15.59
2023-05-23T20:02:02.793Z,15.51
2023-05-23T20:04:29.728Z,16.08
2023-05-23T20:06:56.745Z,15.61
2023-05-23T20:09:23.572Z,15.18
2023-05-23T20:11:50.458Z,15.86
2023-05-23T20:14:17.125Z,16.14
2023-05-23T20:16:43.920Z,15.85
2023-05-23T20:19:10.690Z,15.17
2023-05-23T20:21:37.652Z,15.62
2023-05-23T20:24:04.536Z,16.00
2023-05-23T20:26:31.574Z,15.81
2023-05-23T20:28:58.403Z,15.94
2023-05-23T20:31:25.222Z,16.17
2023-05-23T20:33:52.615Z,15.97
2023-05-23T20:36:21.141Z,16.28
2023-05-23T20:38:48.019Z,15.65
2023-05-23T20:41:14.854Z,15.73
2023-05-23T20:43:41.602Z,15.83
2023-05-23T20:46:11.709Z,14.99
2023-05-23T20:48:38.905Z,15.82
2023-05-23T20:51:06.020Z,15.54
2023-05-23T20:53:32.849Z,14.29
2023-05-23T20:55:59.793Z,16.12
2023-05-23T20:58:27.255Z,15.59
2023-05-23T21:00:54.040Z,15.82
2023-05-23T21:03:21.015Z,15.89
2023-05-23T21:05:47.728Z,15.76
2023-05-23T21:08:14.447Z,15.27
2023-05-23T21:10:41.740Z,15.43
2023-05-23T21:13:08.640Z,15.52
2023-05-23T21:15:35.365Z,15.62
2023-05-23T21:18:02.092Z,15.65
2023-05-23T21:20:29.337Z,15.38
2023-05-23T21:22:56.068Z,15.98
2023-05-23T21:25:22.861Z,15.68
2023-05-23T21:27:49.513Z,15.20
2023-05-23T21:30:16.386Z,15.60
2023-05-23T21:32:43.645Z,15.75
2023-05-23T21:35:10.645Z,15.66
2023-05-23T21:37:37.306Z,15.90
2023-05-23T21:40:04.381Z,14.97
2023-05-23T21:42:31.180Z,14.73
2023-05-23T21:44:57.939Z,14.43
2023-05-23T21:47:25.203Z,15.90
2023-05-23T21:50:05.564Z,15.42
2023-05-23T21:52:32.748Z,15.59
2023-05-23T21:54:59.563Z,15.40
2023-05-23T21:57:26.322Z,15.54
2023-05-23T21:59:53.060Z,15.24
2023-05-23T22:02:19.752Z,15.15
2023-05-23T22:04:46.740Z,15.84
2023-05-23T22:07:13.396Z,15.31
2023-05-23T22:09:40.069Z,14.06
2023-05-23T22:12:07.540Z,15.26
2023-05-23T22:14:34.181Z,15.65
2023-05-23T22:17:02.403Z,15.30
2023-05-23T22:19:30.382Z,15.14
2023-05-23T22:21:57.097Z,15.57
2023-05-23T22:24:24.097Z,15.04
2023-05-23T22:26:50.936Z,15.30
2023-05-23T22:29:17.597Z,15.31
2023-05-23T22:31:44.433Z,14.39
2023-05-23T22:34:11.232Z,15.31
2023-05-23T22:36:39.094Z,14.68
2023-05-23T22:39:05.835Z,15.24
2023-05-23T22:41:32.580Z,15.65
2023-05-23T22:43:59.633Z,14.66
2023-05-23T22:46:26.536Z,15.63
2023-05-23T22:48:55.221Z,14.82
2023-05-23T22:51:22.293Z,15.24
2023-05-23T22:53:49.064Z,15.27
2023-05-23T22:56:15.820Z,15.39
2023-05-23T22:58:42.560Z,14.73
2023-05-23T23:01:09.607Z,15.12
2023-05-23T23:03:36.454Z,15.02
2023-05-23T23:06:06.205Z,15.06
2023-05-23T23:08:33.430Z,14.64
2023-05-23T23:11:00.109Z,15.01
2023-05-23T23:13:26.902Z,15.22
2023-05-23T23:15:54.472Z,15.18
2023-05-23T23:18:21.278Z,14.83
2023-05-23T23:20:48.417Z,15.07
2023-05-23T23:23:15.213Z,15.51
2023-05-23T23:25:41.898Z,15.01
2023-05-23T23:28:08.563Z,13.44
2023-05-23T23:30:35.194Z,14.90
2023-05-23T23:33:01.982Z,14.65
2023-05-23T23:35:28.806Z,13.47
2023-05-23T23:37:55.483Z,15.04
2023-05-23T23:40:22.381Z,14.26
2023-05-23T23:42:48.980Z,15.14
2023-05-23T23:45:15.684Z,15.04
2023-05-23T23:47:42.862Z,15.06
2023-05-23T23:50:09.710Z,14.51
2023-05-23T23:52:39.136Z,14.90
2023-05-23T23:55:06.212Z,15.17
2023-05-23T23:57:32.968Z,15.15
2023-05-23T23:59:59.739Z,15.08
